This is the latest recevied weather packets stored in our database for station/object WP4PW. If no packets are shown the sender has not sent any weather packets the latest 1 day(s).
| Time | Temp. | Humidity | Pressure | Rain* | Wind** | Luminosity | Snow |
|---|---|---|---|---|---|---|---|
| 1778018903 | 28.89° C | 78% | 1020.8 hPa | 0 mm | 1.34 m/s, 143° | 48 W/m² | - |
| 1778018600 | 28.89° C | 78% | 1020.8 hPa | 0 mm | 2.68 m/s, 124° | 48 W/m² | - |
| 1778018298 | 28.89° C | 77% | 1020.7 hPa | 0 mm | 0.89 m/s, 115° | 40 W/m² | - |
| 1778017996 | 28.89° C | 77% | 1020.5 hPa | 0 mm | 1.79 m/s, 145° | 44 W/m² | - |
| 1778017694 | 29.44° C | 77% | 1020.5 hPa | 0 mm | 1.79 m/s, 168° | 55 W/m² | - |
| 1778017391 | 29.44° C | 77% | 1020.5 hPa | 0 mm | 2.68 m/s, 151° | 113 W/m² | - |
| 1778017088 | 28.89° C | 77% | 1020.4 hPa | 0 mm | 2.24 m/s, 161° | 68 W/m² | - |
| 1778016786 | 28.89° C | 78% | 1020.4 hPa | 0 mm | 3.13 m/s, 124° | 70 W/m² | - |
| 1778016481 | 29.44° C | 78% | 1020.2 hPa | 0 mm | 1.34 m/s, 68° | 96 W/m² | - |
| 1778016179 | 29.44° C | 78% | 1020.2 hPa | 0 mm | 1.79 m/s, 147° | 96 W/m² | - |
| 1778015875 | 30° C | 79% | 1020.3 hPa | 0 mm | 0.89 m/s, 201° | 211 W/m² | - |
| 1778015573 | 30° C | 78% | 1020.2 hPa | 0 mm | 1.34 m/s, 188° | 214 W/m² | - |
| 1778015269 | 31.11° C | 76% | 1020.2 hPa | 0 mm | 4.02 m/s, 113° | 237 W/m² | - |
| 1778014966 | 30.56° C | 76% | 1020.2 hPa | 0 mm | 0.89 m/s, 199° | 265 W/m² | - |
| 1778014663 | 30.56° C | 77% | 1020.3 hPa | 0 mm | 2.24 m/s, 145° | 328 W/m² | - |
| 1778014361 | 30.56° C | 76% | 1020.2 hPa | 0 mm | 2.68 m/s, 150° | 307 W/m² | - |
| 1778014057 | 30.56° C | 77% | 1020.3 hPa | 0 mm | 3.58 m/s, 122° | 336 W/m² | - |
| 1778013756 | 30.56° C | 77% | 1020.3 hPa | 0 mm | 1.34 m/s, 170° | 369 W/m² | - |
| 1778013452 | 30° C | 78% | 1020.4 hPa | 0 mm | 2.24 m/s, 182° | 342 W/m² | - |
| 1778013149 | 30° C | 78% | 1020.3 hPa | 0 mm | 2.24 m/s, 172° | 114 W/m² | - |
| 1778012845 | 30° C | 77% | 1020.4 hPa | 0 mm | 0.89 m/s, 180° | 278 W/m² | - |
| 1778012541 | 30.56° C | 76% | 1020.3 hPa | 0 mm | 0.89 m/s, 170° | 139 W/m² | - |
| 1778012238 | 31.67° C | 72% | 1020.4 hPa | 0 mm | 1.34 m/s, 149° | 188 W/m² | - |
| 1778011936 | 31.11° C | 74% | 1020.3 hPa | 0 mm | 2.24 m/s, 118° | 421 W/m² | - |
| 1778011634 | 30.56° C | 77% | 1020.3 hPa | 0 mm | 2.68 m/s, 105° | 464 W/m² | - |
* Rain latest hour (hover to see other rain measurements)
** Current wind speed in m/s (hover to see current wind gust speed)